createdAt,value
2022-08-22T00:00:01.169Z,10.68
2022-08-22T00:06:20.417Z,7.75
2022-08-22T00:09:07.475Z,10.88
2022-08-22T00:11:58.012Z,10.77
2022-08-22T00:15:31.533Z,9.00
2022-08-22T00:18:36.337Z,11.93
2022-08-22T00:21:31.392Z,9.45
2022-08-22T00:24:29.154Z,10.18
2022-08-22T00:27:17.078Z,10.38
2022-08-22T00:30:18.457Z,11.52
2022-08-22T00:33:05.338Z,10.70
2022-08-22T00:35:51.698Z,13.73
2022-08-22T00:38:45.426Z,12.70
2022-08-22T00:42:06.862Z,11.95
2022-08-22T00:44:58.175Z,10.52
2022-08-22T00:48:01.706Z,11.20
2022-08-22T00:51:17.591Z,11.10
2022-08-22T00:54:17.361Z,9.68
2022-08-22T00:57:19.277Z,10.88
2022-08-22T01:00:35.068Z,12.82
2022-08-22T01:03:44.840Z,9.77
2022-08-22T01:06:47.642Z,13.30
2022-08-22T01:09:47.068Z,9.45
2022-08-22T01:13:13.001Z,11.85
2022-08-22T01:15:44.729Z,11.45
2022-08-22T01:18:48.768Z,12.20
2022-08-22T01:22:19.525Z,12.77
2022-08-22T01:25:21.455Z,9.52
2022-08-22T01:28:20.556Z,9.90
2022-08-22T01:31:28.728Z,8.18
2022-08-22T01:34:41.533Z,11.82
2022-08-22T01:38:25.804Z,9.75
2022-08-22T01:41:17.175Z,10.27
2022-08-22T01:44:28.989Z,11.77
2022-08-22T01:47:16.789Z,11.20
2022-08-22T01:50:12.869Z,9.18
2022-08-22T01:53:16.293Z,12.57
2022-08-22T01:56:12.016Z,11.70
2022-08-22T01:59:05.275Z,10.65
2022-08-22T02:02:12.393Z,8.60
2022-08-22T02:05:02.415Z,10.52
2022-08-22T02:08:00.639Z,10.52
2022-08-22T02:11:04.587Z,12.40
2022-08-22T02:13:58.703Z,10.07
2022-08-22T02:16:38.780Z,10.38
2022-08-22T02:19:14.290Z,8.48
2022-08-22T02:22:53.484Z,11.32
2022-08-22T02:25:33.584Z,8.50
2022-08-22T02:28:16.311Z,9.27
2022-08-22T02:31:16.720Z,9.52
2022-08-22T02:34:36.920Z,11.60
2022-08-22T02:37:21.937Z,7.80
2022-08-22T02:40:39.672Z,8.80
2022-08-22T02:43:36.040Z,10.35
2022-08-22T02:46:27.342Z,9.48
2022-08-22T02:49:43.985Z,10.35
2022-08-22T02:52:32.212Z,8.63
2022-08-22T02:55:20.060Z,10.88
2022-08-22T02:58:21.130Z,9.07
2022-08-22T03:00:59.113Z,11.45
2022-08-22T03:03:36.254Z,8.38
2022-08-22T03:06:40.162Z,13.90
2022-08-22T03:09:32.591Z,8.38
2022-08-22T03:12:36.032Z,7.93
2022-08-22T03:15:23.126Z,11.80
2022-08-22T03:18:25.677Z,11.40
2022-08-22T03:21:31.131Z,9.75
2022-08-22T03:24:14.537Z,9.88
2022-08-22T03:27:32.381Z,9.98
2022-08-22T03:30:17.462Z,10.32
2022-08-22T03:33:21.299Z,9.60
2022-08-22T03:35:48.164Z,8.93
2022-08-22T03:39:08.207Z,12.88
2022-08-22T03:42:18.396Z,8.50
2022-08-22T03:45:35.310Z,10.68
2022-08-22T03:48:42.583Z,9.65
2022-08-22T03:51:27.326Z,10.30
2022-08-22T03:54:38.524Z,12.82
2022-08-22T03:58:27.606Z,11.38
2022-08-22T04:01:25.726Z,8.90
2022-08-22T04:04:37.305Z,8.70
2022-08-22T04:07:35.384Z,10.80
2022-08-22T04:10:59.135Z,11.98
2022-08-22T04:14:18.266Z,13.40
2022-08-22T04:21:49.303Z,12.07
2022-08-22T04:25:07.629Z,12.63
2022-08-22T04:28:16.084Z,10.80
2022-08-22T04:31:08.532Z,11.07
2022-08-22T04:34:01.293Z,13.48
2022-08-22T04:37:00.780Z,11.13
2022-08-22T04:39:57.321Z,13.60
2022-08-22T04:42:41.936Z,10.65
2022-08-22T04:45:29.862Z,14.20
2022-08-22T04:48:35.020Z,11.50
2022-08-22T04:51:22.962Z,12.63
2022-08-22T04:54:37.827Z,10.15
2022-08-22T04:58:09.066Z,13.75
2022-08-22T05:00:56.651Z,11.20
2022-08-22T05:03:29.793Z,11.40
2022-08-22T05:06:05.243Z,11.75
2022-08-22T05:08:41.300Z,13.60
2022-08-22T05:11:18.052Z,9.60
2022-08-22T05:14:00.130Z,11.93
2022-08-22T05:16:51.315Z,9.85
2022-08-22T05:19:37.489Z,10.00
2022-08-22T05:22:30.427Z,10.73
2022-08-22T05:25:12.642Z,12.32
2022-08-22T05:27:53.311Z,14.98
2022-08-22T05:30:31.484Z,12.68
2022-08-22T05:33:32.316Z,12.52
2022-08-22T05:36:13.500Z,11.02
2022-08-22T05:39:28.279Z,13.55
2022-08-22T05:42:04.045Z,14.73
2022-08-22T05:44:38.380Z,15.85
2022-08-22T05:47:53.356Z,13.82
2022-08-22T05:50:50.838Z,14.05
2022-08-22T05:53:41.075Z,13.60
2022-08-22T05:56:37.485Z,19.33
2022-08-22T05:59:27.807Z,14.38
2022-08-22T06:02:23.956Z,13.80
2022-08-22T06:05:02.592Z,14.82
2022-08-22T06:10:33.116Z,11.40
2022-08-22T06:13:26.455Z,12.48
2022-08-22T06:16:18.775Z,12.48
2022-08-22T06:18:46.646Z,16.75
2022-08-22T06:24:24.145Z,13.25
2022-08-22T06:27:05.862Z,11.77
2022-08-22T06:30:03.216Z,14.48
2022-08-22T06:32:59.204Z,15.15
2022-08-22T06:36:02.993Z,17.33
2022-08-22T06:39:10.369Z,14.30
2022-08-22T06:41:50.978Z,20.92
2022-08-22T06:44:31.814Z,13.55
2022-08-22T06:47:08.509Z,14.00
2022-08-22T06:49:40.456Z,14.95
2022-08-22T06:52:21.369Z,13.07
2022-08-22T06:55:00.476Z,18.02
2022-08-22T06:57:48.868Z,14.02
2022-08-22T07:00:18.256Z,11.07
2022-08-22T07:03:23.564Z,14.50
2022-08-22T07:05:57.822Z,11.77
2022-08-22T07:08:34.946Z,15.13
2022-08-22T07:11:19.567Z,11.75
2022-08-22T07:14:05.798Z,13.98
2022-08-22T07:17:04.408Z,12.80
2022-08-22T07:19:54.137Z,12.65
2022-08-22T07:22:33.092Z,14.73
2022-08-22T07:25:16.439Z,12.57
2022-08-22T07:27:58.392Z,11.95
2022-08-22T07:30:54.998Z,10.13
2022-08-22T07:33:50.478Z,11.93
2022-08-22T07:36:50.094Z,7.55
2022-08-22T07:39:38.531Z,11.30
2022-08-22T07:42:48.443Z,9.68
2022-08-22T07:45:59.322Z,10.73
2022-08-22T07:49:08.588Z,13.85
2022-08-22T07:54:55.426Z,16.42
2022-08-22T07:57:45.978Z,13.48
2022-08-22T08:00:21.903Z,11.70
2022-08-22T08:03:07.145Z,6.75
2022-08-22T08:05:43.225Z,11.27
2022-08-22T08:08:42.719Z,6.68
2022-08-22T08:11:19.017Z,6.47
2022-08-22T08:13:59.577Z,5.45
2022-08-22T08:17:00.950Z,7.07
2022-08-22T08:19:34.686Z,4.50
2022-08-22T08:22:04.833Z,4.55
2022-08-22T08:24:43.376Z,5.07
2022-08-22T08:27:50.196Z,6.90
2022-08-22T08:30:37.256Z,8.02
2022-08-22T08:33:25.610Z,5.60
2022-08-22T08:39:19.665Z,5.03
2022-08-22T08:42:26.228Z,4.10
2022-08-22T08:45:41.410Z,5.55
2022-08-22T08:49:14.961Z,4.30
2022-08-22T08:52:34.110Z,8.93
2022-08-22T08:55:42.493Z,2.92
2022-08-22T08:58:37.906Z,3.30
2022-08-22T09:01:42.967Z,7.03
2022-08-22T09:05:05.854Z,8.57
2022-08-22T09:08:18.510Z,5.35
2022-08-22T09:11:47.867Z,8.68
2022-08-22T09:14:27.054Z,4.93
2022-08-22T09:17:52.790Z,9.45
2022-08-22T09:20:54.751Z,8.50
2022-08-22T09:24:00.422Z,4.53
2022-08-22T09:26:57.174Z,8.65
2022-08-22T09:29:54.962Z,5.60
2022-08-22T09:33:12.680Z,6.45
2022-08-22T09:36:05.370Z,5.40
2022-08-22T09:39:08.415Z,4.10
2022-08-22T09:46:36.793Z,6.97
2022-08-22T09:50:04.990Z,4.78
2022-08-22T09:53:07.943Z,4.57
2022-08-22T09:56:16.620Z,4.43
2022-08-22T09:59:20.898Z,7.38
2022-08-22T10:02:32.379Z,4.45
2022-08-22T10:06:00.739Z,7.45
2022-08-22T10:09:08.991Z,8.23
2022-08-22T10:12:13.074Z,6.90
2022-08-22T10:15:39.888Z,4.10
2022-08-22T10:18:27.300Z,11.43
2022-08-22T10:21:25.270Z,3.80
2022-08-22T10:24:13.170Z,5.32
2022-08-22T10:27:18.385Z,6.15
2022-08-22T10:30:18.573Z,6.10
2022-08-22T10:33:00.521Z,10.82
2022-08-22T10:35:45.609Z,5.70
2022-08-22T10:38:46.823Z,4.03
2022-08-22T10:42:08.422Z,6.93
2022-08-22T10:45:36.386Z,6.03
2022-08-22T10:48:08.015Z,3.80
2022-08-22T10:51:08.716Z,4.80
2022-08-22T10:54:08.982Z,7.45
2022-08-22T10:56:59.237Z,4.88
2022-08-22T10:59:51.834Z,2.67
2022-08-22T11:02:53.068Z,6.35
2022-08-22T11:05:44.779Z,3.50
2022-08-22T11:09:22.522Z,4.90
2022-08-22T11:12:23.803Z,5.25
2022-08-22T11:15:34.855Z,5.40
2022-08-22T11:19:15.365Z,4.22
2022-08-22T11:22:33.986Z,3.75
2022-08-22T11:25:52.443Z,6.18
2022-08-22T11:28:57.753Z,5.70
2022-08-22T11:32:13.654Z,7.20
2022-08-22T11:34:56.700Z,3.67
2022-08-22T11:38:33.855Z,3.63
2022-08-22T11:41:25.372Z,2.83
2022-08-22T11:44:25.799Z,3.45
2022-08-22T11:46:59.043Z,4.30
2022-08-22T11:50:03.910Z,3.00
2022-08-22T11:53:47.333Z,3.88
2022-08-22T11:56:49.251Z,2.30
2022-08-22T11:59:43.367Z,2.40
2022-08-22T12:03:29.768Z,4.20
2022-08-22T12:06:08.887Z,6.40
2022-08-22T12:08:35.863Z,7.13
2022-08-22T12:12:25.125Z,5.80
2022-08-22T12:15:43.671Z,2.97
2022-08-22T12:19:14.850Z,4.78
2022-08-22T12:22:36.210Z,3.10
2022-08-22T12:25:47.298Z,6.47
2022-08-22T12:29:16.831Z,4.88
2022-08-22T12:31:59.123Z,6.07
2022-08-22T12:35:17.909Z,4.60
2022-08-22T12:38:37.955Z,5.25
2022-08-22T12:41:58.681Z,5.15
2022-08-22T12:45:22.422Z,3.67
2022-08-22T12:48:47.985Z,5.80
2022-08-22T12:52:07.971Z,4.60
2022-08-22T12:55:13.493Z,3.80
2022-08-22T12:59:11.541Z,5.68
2022-08-22T13:01:50.404Z,6.53
2022-08-22T13:04:32.419Z,3.63
2022-08-22T13:07:31.649Z,2.03
2022-08-22T13:10:35.751Z,2.97
2022-08-22T13:13:12.124Z,2.70
2022-08-22T13:16:00.046Z,4.10
2022-08-22T13:18:46.515Z,5.17
2022-08-22T13:21:34.983Z,2.63
2022-08-22T13:24:51.829Z,3.92
2022-08-22T13:27:50.947Z,2.72
2022-08-22T13:30:37.433Z,3.43
2022-08-22T13:33:14.418Z,4.03
2022-08-22T13:36:03.198Z,2.53
2022-08-22T13:41:45.849Z,4.95
2022-08-22T13:44:26.811Z,3.33
2022-08-22T13:47:14.240Z,3.28
2022-08-22T13:50:10.175Z,3.57
2022-08-22T13:52:55.214Z,2.97
2022-08-22T13:55:49.597Z,3.03
2022-08-22T13:58:45.418Z,5.00
2022-08-22T14:01:48.058Z,4.88
2022-08-22T14:04:36.474Z,2.38
2022-08-22T14:07:04.508Z,5.60
2022-08-22T14:10:18.687Z,3.28
2022-08-22T14:13:40.739Z,3.08
2022-08-22T14:16:36.557Z,2.78
2022-08-22T14:19:35.000Z,3.83
2022-08-22T14:22:34.945Z,3.95
2022-08-22T14:25:28.395Z,4.45
2022-08-22T14:28:09.354Z,4.85
2022-08-22T14:31:00.665Z,2.70
2022-08-22T14:34:00.242Z,5.82
2022-08-22T14:37:02.725Z,3.55
2022-08-22T14:40:01.013Z,2.67
2022-08-22T14:42:58.508Z,4.07
2022-08-22T14:45:43.052Z,3.80
2022-08-22T14:48:40.560Z,2.65
2022-08-22T14:51:24.250Z,4.38
2022-08-22T14:53:52.639Z,2.95
2022-08-22T14:56:29.974Z,2.95
2022-08-22T14:59:45.302Z,5.00
2022-08-22T15:02:33.164Z,3.90
2022-08-22T15:05:19.904Z,3.80
2022-08-22T15:08:01.438Z,3.20
2022-08-22T15:10:34.410Z,4.75
2022-08-22T15:13:08.664Z,4.63
2022-08-22T15:15:54.344Z,5.07
2022-08-22T15:18:28.621Z,5.50
2022-08-22T15:21:11.251Z,3.08
2022-08-22T15:23:46.999Z,5.47
2022-08-22T15:26:55.559Z,3.75
2022-08-22T15:30:05.370Z,4.30
2022-08-22T15:32:42.979Z,2.17
2022-08-22T15:35:31.233Z,3.60
2022-08-22T15:38:08.790Z,4.65
2022-08-22T15:40:46.302Z,4.75
2022-08-22T15:43:33.649Z,6.68
2022-08-22T15:49:30.940Z,5.50
2022-08-22T15:52:01.028Z,3.38
2022-08-22T15:54:57.209Z,4.28
2022-08-22T15:57:39.125Z,5.78
2022-08-22T16:00:45.492Z,3.35
2022-08-22T16:03:31.232Z,3.22
2022-08-22T16:06:09.799Z,5.07
2022-08-22T16:08:36.687Z,3.45
2022-08-22T16:11:03.614Z,3.85
2022-08-22T16:13:30.527Z,3.25
2022-08-22T16:16:11.882Z,6.38
2022-08-22T16:18:43.279Z,3.22
2022-08-22T16:21:22.472Z,5.25
2022-08-22T16:23:58.433Z,5.45
2022-08-22T16:26:43.069Z,3.95
2022-08-22T16:29:18.060Z,6.97
2022-08-22T16:31:48.298Z,4.45
2022-08-22T16:34:18.236Z,3.78
2022-08-22T16:37:03.440Z,9.25
2022-08-22T16:39:42.485Z,3.58
2022-08-22T16:42:16.104Z,4.60
2022-08-22T16:45:17.923Z,5.75
2022-08-22T16:47:58.543Z,3.53
2022-08-22T16:50:37.360Z,4.97
2022-08-22T16:53:13.941Z,4.55
2022-08-22T16:56:05.689Z,8.68
2022-08-22T16:59:38.382Z,3.67
2022-08-22T17:02:52.638Z,3.03
2022-08-22T17:05:53.571Z,3.00
2022-08-22T17:09:14.932Z,7.32
2022-08-22T17:12:40.836Z,5.43
2022-08-22T17:15:57.382Z,10.07
2022-08-22T17:18:45.971Z,5.47
2022-08-22T17:21:28.977Z,11.38
2022-08-22T17:24:31.643Z,7.80
2022-08-22T17:27:28.150Z,5.40
2022-08-22T17:30:16.259Z,7.63
2022-08-22T17:33:30.225Z,3.45
2022-08-22T17:36:26.740Z,5.25
2022-08-22T17:39:31.082Z,6.30
2022-08-22T17:42:23.789Z,3.67
2022-08-22T17:45:34.894Z,4.53
2022-08-22T17:48:28.899Z,4.13
2022-08-22T17:51:30.510Z,5.80
2022-08-22T17:54:35.708Z,5.88
2022-08-22T17:57:38.502Z,3.65
2022-08-22T18:00:30.836Z,4.25
2022-08-22T18:03:14.364Z,4.07
2022-08-22T18:06:02.474Z,4.45
2022-08-22T18:12:21.363Z,6.18
2022-08-22T18:15:48.496Z,3.03
2022-08-22T18:18:37.507Z,3.03
2022-08-22T18:21:15.353Z,7.10
2022-08-22T18:23:58.432Z,4.68
2022-08-22T18:27:34.883Z,4.63
2022-08-22T18:30:11.532Z,4.95
2022-08-22T18:33:00.225Z,2.78
2022-08-22T18:36:14.876Z,7.05
2022-08-22T18:39:14.484Z,5.28
2022-08-22T18:41:41.329Z,2.60
2022-08-22T18:44:25.298Z,5.90
2022-08-22T18:47:16.800Z,5.88
2022-08-22T18:49:54.360Z,3.78
2022-08-22T18:52:36.857Z,5.13
2022-08-22T18:55:49.689Z,5.35
2022-08-22T18:58:38.072Z,5.13
2022-08-22T19:01:51.945Z,3.47
2022-08-22T19:05:15.478Z,4.30
2022-08-22T19:08:01.048Z,5.00
2022-08-22T19:11:22.767Z,6.85
2022-08-22T19:14:33.775Z,5.97
2022-08-22T19:17:36.317Z,8.00
2022-08-22T19:20:52.649Z,6.45
2022-08-22T19:23:40.558Z,5.53
2022-08-22T19:26:44.507Z,4.85
2022-08-22T19:29:16.028Z,5.70
2022-08-22T19:31:57.882Z,4.95
2022-08-22T19:34:30.546Z,4.90
2022-08-22T19:37:32.162Z,4.82
2022-08-22T19:40:12.611Z,3.85
2022-08-22T19:42:44.221Z,7.50
2022-08-22T19:45:27.233Z,4.93
2022-08-22T19:48:13.672Z,4.65
2022-08-22T19:50:44.148Z,8.23
2022-08-22T19:53:36.279Z,5.35
2022-08-22T19:56:29.502Z,4.90
2022-08-22T19:59:51.046Z,5.47
2022-08-22T20:02:56.764Z,3.40
2022-08-22T20:06:33.659Z,3.42
2022-08-22T20:09:53.301Z,5.93
2022-08-22T20:12:29.097Z,5.47
2022-08-22T20:14:57.253Z,4.75
2022-08-22T20:17:26.934Z,4.55
2022-08-22T20:20:19.387Z,3.00
2022-08-22T20:23:28.485Z,6.45
2022-08-22T20:25:57.228Z,5.18
2022-08-22T20:28:40.569Z,3.60
2022-08-22T20:31:25.678Z,5.85
2022-08-22T20:34:08.562Z,6.47
2022-08-22T20:36:38.008Z,4.68
2022-08-22T20:39:22.255Z,3.83
2022-08-22T20:42:11.759Z,6.97
2022-08-22T20:44:55.968Z,5.72
2022-08-22T20:47:36.211Z,6.57
2022-08-22T20:50:14.563Z,5.72
2022-08-22T20:52:54.538Z,6.82
2022-08-22T20:55:31.558Z,5.05
2022-08-22T20:58:21.997Z,3.80
2022-08-22T21:01:00.563Z,4.35
2022-08-22T21:03:30.397Z,4.53
2022-08-22T21:06:12.979Z,4.95
2022-08-22T21:08:43.836Z,7.82
2022-08-22T21:11:40.814Z,6.95
2022-08-22T21:14:31.413Z,5.43
2022-08-22T21:16:58.652Z,6.10
2022-08-22T21:19:30.120Z,4.18
2022-08-22T21:22:25.864Z,6.82
2022-08-22T21:24:59.487Z,7.72
2022-08-22T21:27:35.008Z,6.18
2022-08-22T21:30:11.314Z,4.40
2022-08-22T21:32:53.747Z,3.83
2022-08-22T21:35:33.670Z,3.83
2022-08-22T21:38:02.634Z,7.55
2022-08-22T21:40:37.971Z,4.80
2022-08-22T21:43:38.735Z,7.05
2022-08-22T21:46:08.239Z,6.40
2022-08-22T21:48:46.364Z,4.57
2022-08-22T21:51:31.918Z,5.68
2022-08-22T21:54:21.959Z,6.43
2022-08-22T21:57:20.649Z,12.48
2022-08-22T21:59:59.387Z,6.85
2022-08-22T22:02:39.721Z,4.35
2022-08-22T22:05:14.418Z,7.68
2022-08-22T22:07:46.911Z,4.53
2022-08-22T22:10:19.732Z,6.63
2022-08-22T22:12:51.957Z,6.63
2022-08-22T22:15:27.361Z,3.60
2022-08-22T22:17:55.850Z,7.15
2022-08-22T22:20:26.330Z,6.40
2022-08-22T22:22:55.301Z,4.28
2022-08-22T22:25:41.291Z,4.97
2022-08-22T22:28:21.466Z,4.72
2022-08-22T22:30:53.429Z,3.83
2022-08-22T22:33:27.928Z,5.78
2022-08-22T22:36:04.396Z,7.53
2022-08-22T22:38:31.751Z,8.25
2022-08-22T22:40:58.904Z,6.65
2022-08-22T22:43:26.437Z,7.05
2022-08-22T22:45:53.454Z,8.35
2022-08-22T22:48:23.982Z,4.20
2022-08-22T22:50:54.002Z,4.55
2022-08-22T22:53:38.108Z,7.13
2022-08-22T22:56:11.515Z,4.68
2022-08-22T22:58:39.163Z,6.45
2022-08-22T23:01:25.130Z,8.25
2022-08-22T23:04:03.281Z,4.80
2022-08-22T23:06:34.430Z,5.68
2022-08-22T23:09:01.803Z,5.90
2022-08-22T23:11:31.032Z,4.40
2022-08-22T23:13:58.154Z,5.35
2022-08-22T23:16:28.884Z,7.05
2022-08-22T23:18:57.092Z,8.00
2022-08-22T23:21:30.431Z,6.85
2022-08-22T23:24:00.387Z,5.93
2022-08-22T23:26:29.103Z,7.63
2022-08-22T23:28:57.911Z,8.25
2022-08-22T23:31:34.173Z,6.57
2022-08-22T23:34:10.241Z,7.93
2022-08-22T23:36:40.852Z,6.88
2022-08-22T23:39:10.454Z,7.25
2022-08-22T23:41:39.218Z,7.70
2022-08-22T23:44:13.496Z,8.45
2022-08-22T23:46:43.140Z,4.95
2022-08-22T23:49:11.868Z,10.07
2022-08-22T23:51:40.500Z,8.88
2022-08-22T23:54:08.570Z,4.65
2022-08-22T23:56:50.292Z,5.80
2022-08-22T23:59:30.050Z,6.57
